Tallahassee, FL (32301)

5:09 PM EDT on September 04, 2015 (GMT -0400)
Hartsfield Elementary School WeatherSTEM | | Change Station
CLOSE
Current Station
Personal Weather Station
Location: Tallahassee, FL
Elevation: 203 ft
Nearby Weather Stations

Elev 203 ft 30.43 °N, 84.26 °W | Updated 15 seconds ago

Overcast
Overcast
79.0 °F
Feels Like 83 °F
N
2.0
Wind Variable Wind from East
Gusts 4.0 mph

Today
High -- | Low -- °F
--% Chance of Precip.
Yesterday
High -- | Low -- °F
Precip. -- in
7:15 AM 7:56 PM
Waning Gibbous, 56% visible
Pressure 29.93 in
Visibility 10.0 miles
Clouds Mostly Cloudy 5500 ft
Mostly Cloudy 25000 ft
Heat Index 83 °F
Dew Point 75 °F
Humidity 86%
Rainfall 0.75 in
Snow Depth Not available.
UV 1.5 out of 12
Pollen 7.20 out of 12
Air Quality Not available.
Flu Activity Not available.
METAR KTLH 042053Z 03009G21KT 10SM TS BKN055CB BKN250 31/22 A2993 RMK AO2 TSE38B40 SLP134 TS NE MOV S CB SE MOV S VCSH S T03110217 55014 $
Pressure 29.93 in
Visibility 10.0 miles
Clouds Mostly Cloudy 5500 ft
Mostly Cloudy 25000 ft
Heat Index 83 °F
Dew Point 75 °F
Humidity 86%
Rainfall 0.75 in
Snow Depth Not available.
UV 1.5 out of 12
Pollen 7.20 out of 12
Air Quality Not available.
Flu Activity Not available.
METAR KTLH 042053Z 03009G21KT 10SM TS BKN055CB BKN250 31/22 A2993 RMK AO2 TSE38B40 SLP134 TS NE MOV S CB SE MOV S VCSH S T03110217 55014 $

10-Day Weather Forecast

×

Almanac

Astronomy

Sep. 04, 2015 Rise Set
Actual Time
Civil Twilight
Nautical Twilight
Astronomical Twilight
Moon
Length of Visible Light
Length of Day
Tomorrow will be .
, % of the Moon is Illuminated

Today's Extremes

State Highs State Lows

Community

WunderPhotos

Upload Photos

1,852,290 photos uploaded!

WunderBlogs® & News

Nearby

Air Quality

  Air Quality AQ Index Pollutant
Not available.

Snow Depth

Station Depth Elevation

Earthquake Activity

City Distance Mag. Time & Date
Minimum magnitude displayed is 2.5.

Coastal Water Temperatures

Place Temperature

Stations

Nearby Weather Stations

Station Location Temp. Windchill Dew Point Humidity Wind Precip. Elev Updated Type